Time;durP1;ratioP1;P1;durP2;ratioP2;P2;SDS_P1;SDS_P2;PMS_P1;PMS_P2;Temp;Humidity;BMP_temperature;BMP_pressure;BME280_temperature;BME280_humidity;BME280_pressure;Samples;Min_cycle;Max_cycle;Signal;HPM_P1;HPM_P2
2023/12/31 00:01:57;;;;;;;;;;;18.20;48.90;;;;;;5113944;28;19939;-67
2023/12/31 00:04:23;;;;;;;;;;;18.20;49.00;;;;;;5113982;28;19930;-67
2023/12/31 00:06:48;;;;;;;;;;;18.10;49.20;;;;;;5115210;28;20475;-67
2023/12/31 00:09:14;;;;;;;;;;;18.00;49.20;;;;;;5114404;28;19920;-67
2023/12/31 00:11:39;;;;;;;;;;;18.00;49.30;;;;;;5096357;28;19931;-67
2023/12/31 00:14:05;;;;;;;;;;;17.90;49.40;;;;;;5115044;28;19920;-67
2023/12/31 00:16:32;;;;;;;;;;;17.90;49.50;;;;;;5113478;28;19957;-67
2023/12/31 00:18:58;;;;;;;;;;;17.80;49.60;;;;;;5113705;28;20304;-67
2023/12/31 00:21:23;;;;;;;;;;;17.80;49.70;;;;;;5113735;28;19954;-67
2023/12/31 00:23:49;;;;;;;;;;;17.70;49.80;;;;;;5114569;28;20014;-66
2023/12/31 00:26:14;;;;;;;;;;;17.60;49.90;;;;;;5113618;28;19920;-66
2023/12/31 00:28:40;;;;;;;;;;;17.60;50.00;;;;;;5114440;28;19920;-67
2023/12/31 00:31:05;;;;;;;;;;;17.60;50.20;;;;;;5114389;28;19924;-67
2023/12/31 00:33:31;;;;;;;;;;;17.50;50.20;;;;;;5113487;28;19927;-66
2023/12/31 00:35:56;;;;;;;;;;;17.50;50.40;;;;;;5114627;28;20429;-67
2023/12/31 00:38:22;;;;;;;;;;;17.50;50.40;;;;;;5113254;28;19924;-67
2023/12/31 00:40:47;;;;;;;;;;;17.40;50.50;;;;;;5113404;28;19942;-67
2023/12/31 00:43:13;;;;;;;;;;;17.40;50.60;;;;;;5113317;28;19976;-67
2023/12/31 00:45:38;;;;;;;;;;;17.30;50.70;;;;;;5112935;28;20371;-66
2023/12/31 00:48:04;;;;;;;;;;;17.30;50.80;;;;;;5114291;28;19920;-66
2023/12/31 00:50:29;;;;;;;;;;;17.20;50.80;;;;;;5112812;28;19927;-66
2023/12/31 00:52:55;;;;;;;;;;;17.20;50.90;;;;;;5113027;28;19989;-67
2023/12/31 00:55:21;;;;;;;;;;;17.20;51.10;;;;;;5113211;28;19920;-67
2023/12/31 00:57:46;;;;;;;;;;;17.10;51.10;;;;;;5113060;28;20018;-66
2023/12/31 01:00:13;;;;;;;;;;;17.10;51.20;;;;;;5112856;28;19975;-66
2023/12/31 01:02:38;;;;;;;;;;;17.00;51.30;;;;;;5112654;28;20015;-67
2023/12/31 01:05:04;;;;;;;;;;;17.00;51.30;;;;;;5112917;28;20011;-66
2023/12/31 01:07:29;;;;;;;;;;;17.00;51.50;;;;;;5113015;28;20432;-66
2023/12/31 01:09:55;;;;;;;;;;;17.00;51.60;;;;;;5112373;28;19924;-68
2023/12/31 01:12:20;;;;;;;;;;;16.90;51.60;;;;;;5112447;28;19924;-67
2023/12/31 01:14:46;;;;;;;;;;;16.90;51.70;;;;;;5112627;28;19973;-67
2023/12/31 01:17:15;;;;;;;;;;;16.90;51.80;;;;;;5112495;28;20006;-67
2023/12/31 01:19:41;;;;;;;;;;;16.90;51.90;;;;;;5112292;28;19924;-67
2023/12/31 01:22:06;;;;;;;;;;;16.80;52.00;;;;;;5112284;28;20036;-66
2023/12/31 01:24:32;;;;;;;;;;;16.70;52.10;;;;;;5112474;28;20018;-66
2023/12/31 01:26:57;;;;;;;;;;;16.70;52.30;;;;;;5113537;28;20379;-66
2023/12/31 01:29:23;;;;;;;;;;;16.70;52.40;;;;;;5113788;28;19920;-67
2023/12/31 01:31:49;;;;;;;;;;;16.60;52.40;;;;;;5112093;28;19919;-66
2023/12/31 01:34:15;;;;;;;;;;;16.60;52.50;;;;;;5112441;28;20060;-66
2023/12/31 01:36:40;;;;;;;;;;;16.60;52.50;;;;;;5111982;28;19920;-66
2023/12/31 01:39:09;;;;;;;;;;;16.60;52.60;;;;;;5113641;28;19920;-67
2023/12/31 01:41:35;;;;;;;;;;;16.60;52.70;;;;;;5112196;28;19920;-67
2023/12/31 01:44:02;;;;;;;;;;;16.50;52.70;;;;;;5112230;28;19919;-67
2023/12/31 01:46:28;;;;;;;;;;;16.50;52.80;;;;;;5111758;28;19920;-66
2023/12/31 01:48:54;;;;;;;;;;;16.50;52.80;;;;;;5113089;27;20389;-66
2023/12/31 01:51:20;;;;;;;;;;;16.40;52.80;;;;;;5112996;28;19970;-67
2023/12/31 01:53:46;;;;;;;;;;;16.50;52.90;;;;;;5112066;28;19979;-67
2023/12/31 01:56:11;;;;;;;;;;;16.50;52.90;;;;;;5111796;28;19919;-67
2023/12/31 01:58:37;;;;;;;;;;;16.50;52.90;;;;;;5111714;28;19919;-66
2023/12/31 02:01:04;;;;;;;;;;;16.50;52.90;;;;;;5112879;28;19930;-66
2023/12/31 02:03:30;;;;;;;;;;;16.50;52.90;;;;;;5111990;28;19946;-66
2023/12/31 02:05:59;;;;;;;;;;;16.50;53.00;;;;;;5111490;28;20370;-66
2023/12/31 02:08:25;;;;;;;;;;;16.50;53.00;;;;;;5111635;28;19920;-67
2023/12/31 02:10:51;;;;;;;;;;;16.50;53.10;;;;;;5111343;28;20302;-66
2023/12/31 02:13:17;;;;;;;;;;;16.90;52.90;;;;;;5111538;28;20382;-67
2023/12/31 02:15:42;;;;;;;;;;;17.30;51.90;;;;;;5111717;28;19924;-67
2023/12/31 02:18:08;;;;;;;;;;;17.80;50.90;;;;;;5111393;28;19920;-67
2023/12/31 02:20:34;;;;;;;;;;;18.40;49.80;;;;;;5111477;28;19920;-67
2023/12/31 02:22:59;;;;;;;;;;;19.00;49.30;;;;;;5111726;28;20325;-67
2023/12/31 02:25:27;;;;;;;;;;;19.70;47.10;;;;;;5112727;28;19970;-67
2023/12/31 02:27:52;;;;;;;;;;;20.50;45.80;;;;;;5111723;28;20275;-66
2023/12/31 02:30:18;;;;;;;;;;;21.10;44.60;;;;;;5111357;28;19931;-66
2023/12/31 02:32:44;;;;;;;;;;;21.70;43.40;;;;;;5111495;28;19926;-67
2023/12/31 02:35:09;;;;;;;;;;;22.30;42.30;;;;;;5111369;28;19920;-66
2023/12/31 02:37:35;;;;;;;;;;;22.80;41.50;;;;;;5111577;28;20003;-66
2023/12/31 02:40:00;;;;;;;;;;;23.20;40.70;;;;;;5111285;28;19926;-66
2023/12/31 02:42:26;;;;;;;;;;;23.70;40.20;;;;;;5111201;28;19920;-66
2023/12/31 02:44:51;;;;;;;;;;;24.00;39.70;;;;;;5111662;28;19920;-66
2023/12/31 02:47:17;;;;;;;;;;;24.10;39.30;;;;;;5111105;28;20367;-66
2023/12/31 02:49:42;;;;;;;;;;;24.20;39.20;;;;;;5111213;28;20022;-66
2023/12/31 02:52:10;;;;;;;;;;;24.20;39.10;;;;;;5112435;28;19924;-67
2023/12/31 02:54:35;;;;;;;;;;;24.10;39.10;;;;;;5112454;28;19920;-67
2023/12/31 02:57:01;;;;;;;;;;;24.10;39.30;;;;;;5111079;28;19972;-67
2023/12/31 02:59:26;;;;;;;;;;;23.90;39.40;;;;;;5111406;28;19927;-67
2023/12/31 03:01:52;;;;;;;;;;;23.80;39.60;;;;;;5111400;28;19927;-66
2023/12/31 03:04:18;;;;;;;;;;;23.60;39.80;;;;;;5110920;28;20010;-67
2023/12/31 03:06:43;;;;;;;;;;;23.50;40.10;;;;;;5111385;28;19920;-67
2023/12/31 03:09:09;;;;;;;;;;;23.30;40.30;;;;;;5111198;28;20300;-67
2023/12/31 03:11:35;;;;;;;;;;;23.10;40.60;;;;;;5112175;28;19932;-66
2023/12/31 03:14:00;;;;;;;;;;;23.00;40.80;;;;;;5110815;28;20392;-66
2023/12/31 03:16:26;;;;;;;;;;;22.80;41.10;;;;;;5111194;28;19919;-67
2023/12/31 03:18:52;;;;;;;;;;;22.60;41.40;;;;;;5113370;28;20377;-67
2023/12/31 03:21:18;;;;;;;;;;;22.30;41.60;;;;;;5115823;28;19938;-67
2023/12/31 03:23:43;;;;;;;;;;;22.20;42.10;;;;;;5114803;28;20327;-67
2023/12/31 03:26:09;;;;;;;;;;;22.00;42.30;;;;;;5114897;28;19920;-67
2023/12/31 03:28:35;;;;;;;;;;;21.70;42.50;;;;;;5114966;28;20378;-66
2023/12/31 03:31:01;;;;;;;;;;;21.60;42.90;;;;;;5114402;28;19924;-66
2023/12/31 03:33:26;;;;;;;;;;;21.40;43.20;;;;;;5114310;28;19928;-67
2023/12/31 03:35:52;;;;;;;;;;;21.20;43.40;;;;;;5114800;28;19928;-67
2023/12/31 03:38:18;;;;;;;;;;;21.10;43.80;;;;;;5114707;28;20393;-66
2023/12/31 03:40:43;;;;;;;;;;;21.00;44.00;;;;;;5114451;28;19923;-66
2023/12/31 03:43:09;;;;;;;;;;;20.80;44.20;;;;;;5114479;28;19985;-67
2023/12/31 03:45:34;;;;;;;;;;;20.70;44.50;;;;;;5115360;28;20356;-67
2023/12/31 03:48:00;;;;;;;;;;;20.50;44.50;;;;;;5115471;28;20014;-67
2023/12/31 03:50:25;;;;;;;;;;;20.40;44.70;;;;;;5113819;28;20033;-67
2023/12/31 03:52:51;;;;;;;;;;;20.30;44.90;;;;;;5114090;28;19930;-67
2023/12/31 03:55:16;;;;;;;;;;;20.20;45.00;;;;;;5114451;28;20002;-67
2023/12/31 03:57:42;;;;;;;;;;;20.10;45.20;;;;;;5115598;28;20321;-67
2023/12/31 04:00:08;;;;;;;;;;;20.10;45.40;;;;;;5115083;28;19920;-67
2023/12/31 04:02:34;;;;;;;;;;;20.00;45.50;;;;;;5115090;28;19920;-67
2023/12/31 04:05:00;;;;;;;;;;;19.90;45.60;;;;;;5113691;28;19920;-68
2023/12/31 04:07:26;;;;;;;;;;;19.80;45.80;;;;;;5114112;28;19927;-67
2023/12/31 04:09:51;;;;;;;;;;;19.80;45.90;;;;;;5114000;28;20023;-66
2023/12/31 04:12:17;;;;;;;;;;;19.70;46.10;;;;;;5115009;28;19924;-66
2023/12/31 04:14:42;;;;;;;;;;;19.60;46.20;;;;;;5114762;28;19924;-67
2023/12/31 04:17:08;;;;;;;;;;;19.50;46.30;;;;;;5113538;28;19919;-67
2023/12/31 04:19:33;;;;;;;;;;;19.40;46.50;;;;;;5113523;28;20298;-67
2023/12/31 04:21:59;;;;;;;;;;;19.40;47.30;;;;;;5113783;28;19923;-67
2023/12/31 04:24:24;;;;;;;;;;;19.30;46.70;;;;;;5114938;27;19963;-67
2023/12/31 04:26:50;;;;;;;;;;;19.30;46.80;;;;;;5113624;28;19927;-67
2023/12/31 04:29:16;;;;;;;;;;;19.20;46.90;;;;;;5113397;28;19920;-67
2023/12/31 04:31:48;;;;;;;;;;;19.10;47.00;;;;;;5113209;28;20279;-67
2023/12/31 04:34:14;;;;;;;;;;;19.10;47.00;;;;;;5114512;28;19919;-66
2023/12/31 04:36:42;;;;;;;;;;;19.00;47.10;;;;;;5113103;28;19920;-67
2023/12/31 04:39:07;;;;;;;;;;;19.00;47.20;;;;;;5113421;28;19924;-67
2023/12/31 04:41:33;;;;;;;;;;;19.00;47.30;;;;;;5113027;28;19927;-67
2023/12/31 04:43:58;;;;;;;;;;;18.90;47.30;;;;;;5114470;28;19963;-67
2023/12/31 04:46:24;;;;;;;;;;;18.90;47.40;;;;;;5112920;28;20014;-67
2023/12/31 04:48:49;;;;;;;;;;;18.80;47.50;;;;;;5113321;28;19919;-68
2023/12/31 04:51:23;;;;;;;;;;;18.80;47.60;;;;;;5112922;28;19967;-67
2023/12/31 04:53:48;;;;;;;;;;;18.70;48.10;;;;;;5114271;28;19924;-67
2023/12/31 04:56:17;;;;;;;;;;;18.60;47.80;;;;;;5114203;28;19928;-67
2023/12/31 04:58:43;;;;;;;;;;;18.60;48.00;;;;;;5114083;28;20011;-68
2023/12/31 05:01:09;;;;;;;;;;;18.50;48.00;;;;;;5112622;28;19977;-67
2023/12/31 05:03:35;;;;;;;;;;;18.40;48.20;;;;;;5112919;28;19927;-67
2023/12/31 05:06:00;;;;;;;;;;;18.40;48.30;;;;;;5113870;28;19920;-67
2023/12/31 05:08:26;;;;;;;;;;;18.30;48.50;;;;;;5113723;28;20324;-67
2023/12/31 05:10:51;;;;;;;;;;;18.30;48.60;;;;;;5113600;28;19949;-67
2023/12/31 05:13:17;;;;;;;;;;;18.20;48.70;;;;;;5113662;28;19945;-67
2023/12/31 05:15:42;;;;;;;;;;;18.10;48.80;;;;;;5112706;28;19928;-67
2023/12/31 05:18:08;;;;;;;;;;;18.10;48.90;;;;;;5112327;28;19920;-67
2023/12/31 05:20:33;;;;;;;;;;;18.00;48.90;;;;;;5112260;28;19920;-66
2023/12/31 05:22:59;;;;;;;;;;;17.90;49.00;;;;;;5112821;28;19928;-67
2023/12/31 05:25:24;;;;;;;;;;;17.90;49.20;;;;;;5112945;28;20260;-67
2023/12/31 05:27:50;;;;;;;;;;;17.90;49.30;;;;;;5112129;28;19920;-67
2023/12/31 05:30:16;;;;;;;;;;;17.80;49.30;;;;;;5112123;28;19919;-66
2023/12/31 05:32:41;;;;;;;;;;;17.80;49.50;;;;;;5112387;28;19973;-67
2023/12/31 05:35:07;;;;;;;;;;;17.70;49.60;;;;;;5113378;28;19920;-67
2023/12/31 05:37:32;;;;;;;;;;;17.70;49.60;;;;;;5113229;28;19924;-67
2023/12/31 05:39:58;;;;;;;;;;;17.60;49.70;;;;;;5112017;28;19920;-67
2023/12/31 05:42:27;;;;;;;;;;;17.60;49.80;;;;;;5111599;28;19920;-67
2023/12/31 05:44:53;;;;;;;;;;;17.50;50.70;;;;;;5113410;28;20400;-67
2023/12/31 05:47:18;;;;;;;;;;;17.50;50.00;;;;;;5111955;28;19967;-67
2023/12/31 05:49:44;;;;;;;;;;;17.50;50.20;;;;;;5112110;28;19920;-66
2023/12/31 05:52:09;;;;;;;;;;;17.40;50.20;;;;;;5112994;28;19924;-67
2023/12/31 05:54:39;;;;;;;;;;;17.40;50.30;;;;;;5111945;28;20006;-67
2023/12/31 05:57:05;;;;;;;;;;;17.30;50.30;;;;;;5111762;28;19919;-67
2023/12/31 05:59:31;;;;;;;;;;;17.30;50.40;;;;;;5112959;28;19920;-67
2023/12/31 06:01:56;;;;;;;;;;;17.30;50.60;;;;;;5112951;28;19967;-67
2023/12/31 06:04:22;;;;;;;;;;;17.20;50.60;;;;;;5111537;28;20092;-66
2023/12/31 06:06:47;;;;;;;;;;;17.20;50.60;;;;;;5112954;28;19920;-67
2023/12/31 06:09:13;;;;;;;;;;;17.20;50.80;;;;;;5112114;28;20282;-67
2023/12/31 06:11:38;;;;;;;;;;;17.10;50.80;;;;;;5111271;28;19928;-67
2023/12/31 06:14:04;;;;;;;;;;;17.10;50.90;;;;;;5111463;28;19934;-67
2023/12/31 06:16:29;;;;;;;;;;;17.10;51.00;;;;;;5113012;28;19934;-67
2023/12/31 06:18:55;;;;;;;;;;;17.00;51.70;;;;;;5111476;28;19920;-67
2023/12/31 06:21:20;;;;;;;;;;;17.00;51.00;;;;;;5112750;28;19920;-67
2023/12/31 06:23:46;;;;;;;;;;;17.00;51.20;;;;;;5111417;28;19919;-67
2023/12/31 06:26:12;;;;;;;;;;;17.00;51.20;;;;;;5111385;28;19920;-67
2023/12/31 06:28:37;;;;;;;;;;;16.90;51.30;;;;;;5112932;28;20006;-67
2023/12/31 06:31:03;;;;;;;;;;;16.90;51.40;;;;;;5111466;28;20399;-67
2023/12/31 06:33:29;;;;;;;;;;;16.90;51.60;;;;;;5112870;28;20455;-67
2023/12/31 06:35:54;;;;;;;;;;;17.30;51.40;;;;;;5111309;28;19920;-66
2023/12/31 06:38:20;;;;;;;;;;;17.60;50.60;;;;;;5111640;28;19920;-67
2023/12/31 06:40:45;;;;;;;;;;;18.00;50.00;;;;;;5112509;28;20459;-67
2023/12/31 06:43:11;;;;;;;;;;;18.50;49.00;;;;;;5111832;28;19920;-66
2023/12/31 06:45:37;;;;;;;;;;;19.10;47.90;;;;;;5111519;28;19969;-66
2023/12/31 06:48:02;;;;;;;;;;;19.80;46.70;;;;;;5111248;28;19930;-67
2023/12/31 06:50:28;;;;;;;;;;;20.40;45.40;;;;;;5112385;28;20026;-67
2023/12/31 06:52:53;;;;;;;;;;;21.10;44.10;;;;;;5112325;28;19969;-67
2023/12/31 06:55:19;;;;;;;;;;;21.80;43.00;;;;;;5115063;28;19927;-67
2023/12/31 06:57:46;;;;;;;;;;;22.40;41.90;;;;;;5115334;28;19926;-67
2023/12/31 07:00:12;;;;;;;;;;;22.90;41.00;;;;;;5116293;27;20375;-67
2023/12/31 07:02:38;;;;;;;;;;;23.30;40.30;;;;;;5116399;28;19926;-66
2023/12/31 07:05:04;;;;;;;;;;;23.70;39.80;;;;;;5115341;28;19920;-67
2023/12/31 07:07:30;;;;;;;;;;;24.00;39.30;;;;;;5114932;28;19927;-66
2023/12/31 07:09:55;;;;;;;;;;;24.20;39.00;;;;;;5114881;28;19931;-66
2023/12/31 07:12:21;;;;;;;;;;;24.20;38.90;;;;;;5114717;28;20391;-66
2023/12/31 07:14:46;;;;;;;;;;;24.20;38.80;;;;;;5114767;28;19959;-67
2023/12/31 07:17:12;;;;;;;;;;;24.10;38.80;;;;;;5115998;28;19928;-67
2023/12/31 07:19:38;;;;;;;;;;;24.10;38.90;;;;;;5114980;28;19927;-67
2023/12/31 07:22:04;;;;;;;;;;;24.00;39.20;;;;;;5114655;28;19919;-67
2023/12/31 07:24:32;;;;;;;;;;;23.80;39.30;;;;;;5114823;28;19920;-68
2023/12/31 07:26:58;;;;;;;;;;;23.60;39.40;;;;;;5114449;28;20370;-66
2023/12/31 07:29:24;;;;;;;;;;;23.50;39.70;;;;;;5115962;28;20447;-67
2023/12/31 07:31:49;;;;;;;;;;;23.30;40.00;;;;;;5097359;28;19928;-66
2023/12/31 07:34:15;;;;;;;;;;;23.20;40.20;;;;;;5115668;28;19927;-66
2023/12/31 07:36:41;;;;;;;;;;;23.00;40.40;;;;;;5115656;28;19926;-66
2023/12/31 07:39:06;;;;;;;;;;;22.80;40.70;;;;;;5114307;28;19964;-67
2023/12/31 07:41:32;;;;;;;;;;;22.60;41.00;;;;;;5115405;28;19969;-67
2023/12/31 07:44:01;;;;;;;;;;;22.40;41.20;;;;;;5114681;28;19923;-66
2023/12/31 07:46:26;;;;;;;;;;;22.10;41.60;;;;;;5114497;28;19920;-67
2023/12/31 07:48:52;;;;;;;;;;;22.00;42.00;;;;;;5115405;28;19926;-67
2023/12/31 07:51:18;;;;;;;;;;;21.80;42.20;;;;;;5115318;28;19931;-67
2023/12/31 07:53:44;;;;;;;;;;;21.60;42.50;;;;;;5114301;28;19926;-67
2023/12/31 07:56:09;;;;;;;;;;;21.40;42.80;;;;;;5113972;28;20301;-69
2023/12/31 07:58:35;;;;;;;;;;;21.20;43.00;;;;;;5114179;28;19927;-69
2023/12/31 08:01:02;;;;;;;;;;;21.10;43.30;;;;;;5114226;28;19919;-69
2023/12/31 08:03:28;;;;;;;;;;;21.00;43.50;;;;;;5113835;28;19927;-68
2023/12/31 08:05:54;;;;;;;;;;;20.80;44.40;;;;;;5114329;28;19920;-68
2023/12/31 08:08:19;;;;;;;;;;;20.70;43.90;;;;;;5114127;28;19950;-69
2023/12/31 08:10:45;;;;;;;;;;;20.60;44.20;;;;;;5114910;28;19946;-69
2023/12/31 08:13:11;;;;;;;;;;;20.40;44.30;;;;;;5114986;28;19927;-69
2023/12/31 08:15:37;;;;;;;;;;;20.30;44.40;;;;;;5113824;28;19920;-69
2023/12/31 08:18:04;;;;;;;;;;;20.30;44.70;;;;;;5114933;28;19923;-69
2023/12/31 08:20:30;;;;;;;;;;;20.20;44.80;;;;;;5115095;27;19920;-69
2023/12/31 08:22:59;;;;;;;;;;;20.10;45.00;;;;;;5113744;28;19919;-69
2023/12/31 08:25:24;;;;;;;;;;;20.00;45.10;;;;;;5114643;28;20298;-69
2023/12/31 08:27:50;;;;;;;;;;;19.90;45.20;;;;;;5114644;28;19949;-69
2023/12/31 08:30:16;;;;;;;;;;;19.80;45.30;;;;;;5113234;28;20065;-69
2023/12/31 08:32:41;;;;;;;;;;;19.80;45.50;;;;;;5114622;28;19920;-69
2023/12/31 08:35:08;;;;;;;;;;;19.70;45.60;;;;;;5113608;28;19927;-69
2023/12/31 08:37:34;;;;;;;;;;;19.60;45.80;;;;;;5113075;28;19972;-68
2023/12/31 08:39:59;;;;;;;;;;;19.50;45.80;;;;;;5113267;28;19919;-69
2023/12/31 08:42:25;;;;;;;;;;;19.50;46.00;;;;;;5113020;28;19981;-69
2023/12/31 08:44:50;;;;;;;;;;;19.40;46.10;;;;;;5114248;28;19919;-69
2023/12/31 08:47:16;;;;;;;;;;;19.40;46.20;;;;;;5113336;28;19927;-68
2023/12/31 08:49:41;;;;;;;;;;;19.30;46.30;;;;;;5112945;28;19919;-68
2023/12/31 08:52:07;;;;;;;;;;;19.30;46.40;;;;;;5112826;28;19924;-69
2023/12/31 08:54:33;;;;;;;;;;;19.20;46.40;;;;;;5113097;28;19924;-68
2023/12/31 08:56:59;;;;;;;;;;;19.20;46.60;;;;;;5112765;28;20363;-68
2023/12/31 08:59:25;;;;;;;;;;;19.10;46.60;;;;;;5112940;28;19924;-69
2023/12/31 09:01:50;;;;;;;;;;;19.10;46.70;;;;;;5113980;28;19927;-68
2023/12/31 09:04:16;;;;;;;;;;;19.00;46.80;;;;;;5112995;28;20375;-69
2023/12/31 09:06:41;;;;;;;;;;;18.90;46.90;;;;;;5113001;28;19920;-68
2023/12/31 09:09:07;;;;;;;;;;;18.90;47.00;;;;;;5112655;28;19965;-69
2023/12/31 09:11:32;;;;;;;;;;;18.80;47.10;;;;;;5130512;27;19938;-69
2023/12/31 09:13:59;;;;;;;;;;;18.70;47.20;;;;;;5116101;27;19930;-69
2023/12/31 09:16:25;;;;;;;;;;;18.70;47.40;;;;;;5133260;27;20358;-69
2023/12/31 09:18:50;;;;;;;;;;;18.60;47.40;;;;;;5134320;27;19926;-69
2023/12/31 09:21:19;;;;;;;;;;;18.60;47.60;;;;;;5134095;27;20395;-69
2023/12/31 09:23:45;;;;;;;;;;;18.50;47.80;;;;;;5115786;27;20003;-69
2023/12/31 09:26:10;;;;;;;;;;;18.50;48.00;;;;;;5134072;27;20356;-69
2023/12/31 09:28:36;;;;;;;;;;;18.40;47.90;;;;;;5115821;27;19966;-69
2023/12/31 09:31:02;;;;;;;;;;;18.30;48.00;;;;;;5133870;27;19924;-69
2023/12/31 09:33:27;;;;;;;;;;;18.30;48.20;;;;;;5133959;27;20010;-69
2023/12/31 09:35:53;;;;;;;;;;;18.30;48.30;;;;;;5115469;27;19945;-68
2023/12/31 09:38:19;;;;;;;;;;;18.20;48.40;;;;;;5115756;27;19919;-69
2023/12/31 09:40:44;;;;;;;;;;;18.10;48.50;;;;;;5115335;27;19919;-69
2023/12/31 09:43:10;;;;;;;;;;;18.10;48.70;;;;;;5115580;27;19926;-69
2023/12/31 09:45:36;;;;;;;;;;;18.00;48.70;;;;;;5133939;27;19926;-69
2023/12/31 09:48:02;;;;;;;;;;;18.00;48.90;;;;;;5133693;27;19924;-69
2023/12/31 09:50:30;;;;;;;;;;;18.00;48.90;;;;;;5115167;27;19964;-69
2023/12/31 09:52:57;;;;;;;;;;;17.90;49.10;;;;;;5133553;27;19972;-69
2023/12/31 09:55:23;;;;;;;;;;;17.90;49.20;;;;;;5115441;27;19970;-69
2023/12/31 09:57:52;;;;;;;;;;;17.80;49.30;;;;;;5133432;27;19927;-68
2023/12/31 10:00:18;;;;;;;;;;;17.80;49.40;;;;;;5133519;27;20331;-69
2023/12/31 10:02:43;;;;;;;;;;;17.70;49.50;;;;;;5098337;27;19923;-69
2023/12/31 10:05:09;;;;;;;;;;;17.70;49.60;;;;;;5115309;28;19980;-69
2023/12/31 10:07:35;;;;;;;;;;;17.60;49.70;;;;;;5133315;27;20378;-69
2023/12/31 10:10:02;;;;;;;;;;;17.60;49.70;;;;;;5133163;27;20023;-69
2023/12/31 10:12:29;;;;;;;;;;;17.60;49.90;;;;;;5133149;27;20378;-69
2023/12/31 10:14:55;;;;;;;;;;;17.50;49.90;;;;;;5115125;28;20060;-69
2023/12/31 10:17:20;;;;;;;;;;;17.50;50.00;;;;;;5133371;28;20465;-69
2023/12/31 10:19:46;;;;;;;;;;;17.50;50.10;;;;;;5115294;28;19926;-69
2023/12/31 10:22:13;;;;;;;;;;;17.40;50.20;;;;;;5114746;28;19968;-69
2023/12/31 10:24:41;;;;;;;;;;;17.40;50.20;;;;;;5115099;28;19920;-69
2023/12/31 10:27:08;;;;;;;;;;;17.40;50.30;;;;;;5116318;27;19919;-69
2023/12/31 10:29:35;;;;;;;;;;;17.40;50.50;;;;;;5119320;27;19926;-69
2023/12/31 10:32:02;;;;;;;;;;;17.30;50.50;;;;;;5118913;27;19930;-69
2023/12/31 10:34:28;;;;;;;;;;;17.30;50.60;;;;;;5119344;27;20363;-69
2023/12/31 10:37:00;;;;;;;;;;;17.20;50.60;;;;;;5119107;27;19926;-69
2023/12/31 10:39:29;;;;;;;;;;;17.20;50.60;;;;;;5119053;27;19972;-69
2023/12/31 10:41:58;;;;;;;;;;;17.20;50.80;;;;;;5119129;27;19951;-68
2023/12/31 10:44:24;;;;;;;;;;;17.20;50.80;;;;;;5137324;27;19919;-69
2023/12/31 10:46:52;;;;;;;;;;;17.20;50.90;;;;;;5119332;27;20439;-68
2023/12/31 10:49:19;;;;;;;;;;;17.10;50.90;;;;;;5118610;27;19920;-69
2023/12/31 10:51:46;;;;;;;;;;;17.10;51.00;;;;;;5137023;27;19924;-67
2023/12/31 10:54:15;;;;;;;;;;;17.10;51.00;;;;;;5137047;27;20317;-66
2023/12/31 10:56:41;;;;;;;;;;;17.10;51.10;;;;;;5118517;27;20393;-67
2023/12/31 10:59:08;;;;;;;;;;;17.10;51.10;;;;;;5118662;27;19927;-66
2023/12/31 11:01:34;;;;;;;;;;;17.10;51.20;;;;;;5136981;27;19959;-67
2023/12/31 11:04:00;;;;;;;;;;;17.10;51.20;;;;;;5118787;27;20019;-66
2023/12/31 11:06:25;;;;;;;;;;;17.10;51.20;;;;;;5137007;27;20059;-67
2023/12/31 11:08:53;;;;;;;;;;;17.10;51.30;;;;;;5118570;27;20322;-66
2023/12/31 11:11:18;;;;;;;;;;;17.10;51.30;;;;;;5136414;27;19923;-67
2023/12/31 11:13:48;;;;;;;;;;;17.10;51.40;;;;;;5136989;27;19919;-67
2023/12/31 11:16:24;;;;;;;;;;;17.00;51.30;;;;;;5118128;27;19920;-67
2023/12/31 11:19:03;;;;;;;;;;;17.00;51.40;;;;;;5118438;27;20440;-68
2023/12/31 11:24:24;;;;;;;;;;;17.00;51.50;;;;;;5110255;27;19918;-67
2023/12/31 11:27:10;;;;;;;;;;;16.90;51.40;;;;;;5109053;28;19920;-67
2023/12/31 11:29:37;;;;;;;;;;;17.00;51.50;;;;;;5091800;28;19937;-68
2023/12/31 11:32:04;;;;;;;;;;;17.00;51.60;;;;;;5109184;28;19927;-67
2023/12/31 11:34:34;;;;;;;;;;;17.00;51.70;;;;;;5110078;28;19920;-67
2023/12/31 11:37:00;;;;;;;;;;;16.90;51.70;;;;;;5109138;28;20275;-67
2023/12/31 11:39:25;;;;;;;;;;;16.90;51.60;;;;;;5108983;28;19927;-67
2023/12/31 11:41:52;;;;;;;;;;;16.90;51.70;;;;;;5108787;28;19967;-68
2023/12/31 11:44:35;;;;;;;;;;;16.90;51.70;;;;;;5110124;28;19928;-67
2023/12/31 11:47:00;;;;;;;;;;;16.90;51.80;;;;;;5108879;28;19920;-67
2023/12/31 11:49:26;;;;;;;;;;;16.90;51.90;;;;;;5109849;28;20356;-67
2023/12/31 11:57:17;;;;;;;;;;;16.80;51.90;;;;;;5110327;27;19940;-67
2023/12/31 11:59:43;;;;;;;;;;;16.90;51.90;;;;;;5109121;28;19920;-67
2023/12/31 12:02:09;;;;;;;;;;;16.80;51.90;;;;;;5108864;28;19955;-67
2023/12/31 12:04:36;;;;;;;;;;;16.80;51.90;;;;;;5109172;28;19967;-68
2023/12/31 12:07:03;;;;;;;;;;;16.80;51.90;;;;;;5092452;28;20373;-67
2023/12/31 12:09:29;;;;;;;;;;;16.80;52.00;;;;;;5109087;28;19920;-67
2023/12/31 12:11:58;;;;;;;;;;;16.80;52.00;;;;;;5108689;28;19967;-67
2023/12/31 12:14:23;;;;;;;;;;;16.80;52.00;;;;;;5109866;28;19920;-67
2023/12/31 12:16:49;;;;;;;;;;;16.80;52.00;;;;;;5110011;28;19931;-67
2023/12/31 12:19:16;;;;;;;;;;;16.70;52.00;;;;;;5108577;28;19920;-67
2023/12/31 12:21:41;;;;;;;;;;;16.70;52.00;;;;;;5108520;28;19920;-67
2023/12/31 12:24:08;;;;;;;;;;;16.70;52.00;;;;;;5109797;28;19927;-67
2023/12/31 12:26:35;;;;;;;;;;;16.70;52.10;;;;;;5108643;28;19972;-67
2023/12/31 12:29:01;;;;;;;;;;;16.70;52.10;;;;;;5108401;28;19932;-68
2023/12/31 12:31:32;;;;;;;;;;;16.70;52.10;;;;;;5108272;28;19927;-67
2023/12/31 12:33:58;;;;;;;;;;;16.70;52.20;;;;;;5108617;28;19927;-67
2023/12/31 12:36:23;;;;;;;;;;;16.70;52.20;;;;;;5108195;28;19924;-67
2023/12/31 12:38:49;;;;;;;;;;;16.60;52.20;;;;;;5108525;28;19920;-67
2023/12/31 12:41:18;;;;;;;;;;;16.70;52.40;;;;;;5108181;28;20371;-67
2023/12/31 12:43:44;;;;;;;;;;;16.70;52.40;;;;;;5108472;28;19920;-67
2023/12/31 12:46:10;;;;;;;;;;;16.60;52.40;;;;;;5109420;28;19926;-67
2023/12/31 12:48:51;;;;;;;;;;;16.60;52.40;;;;;;5109367;28;19923;-67
2023/12/31 12:51:17;;;;;;;;;;;16.60;52.50;;;;;;5108231;28;19950;-67
2023/12/31 12:53:42;;;;;;;;;;;16.60;52.50;;;;;;5109179;28;19924;-67
2023/12/31 12:56:08;;;;;;;;;;;16.50;52.60;;;;;;5107772;28;19924;-67
2023/12/31 12:58:33;;;;;;;;;;;16.60;52.60;;;;;;5107943;28;19920;-67
2023/12/31 13:00:59;;;;;;;;;;;16.50;52.80;;;;;;5108281;28;20341;-67
2023/12/31 13:03:24;;;;;;;;;;;16.50;52.80;;;;;;5108033;28;19927;-67
2023/12/31 13:05:50;;;;;;;;;;;16.50;52.80;;;;;;5109166;28;20290;-67
2023/12/31 13:08:19;;;;;;;;;;;16.50;52.90;;;;;;5095705;28;19924;-67
2023/12/31 13:10:47;;;;;;;;;;;16.50;52.90;;;;;;5095393;28;20108;-67
2023/12/31 13:13:13;;;;;;;;;;;16.50;53.80;;;;;;5094247;28;19927;-67
2023/12/31 13:15:38;;;;;;;;;;;16.40;53.00;;;;;;5094104;28;20302;-67
2023/12/31 13:18:04;;;;;;;;;;;16.40;53.00;;;;;;5093941;28;19924;-68
2023/12/31 13:20:29;;;;;;;;;;;16.40;53.10;;;;;;5094277;28;19920;-67
2023/12/31 13:22:55;;;;;;;;;;;16.40;53.20;;;;;;5093976;28;20466;-68
2023/12/31 13:25:21;;;;;;;;;;;16.40;53.20;;;;;;5093844;28;19998;-67
2023/12/31 13:27:46;;;;;;;;;;;16.40;53.30;;;;;;5094904;28;19963;-67
2023/12/31 13:30:12;;;;;;;;;;;16.30;53.30;;;;;;5094223;28;20022;-67
2023/12/31 13:32:37;;;;;;;;;;;16.30;53.30;;;;;;5093868;28;19960;-67
2023/12/31 13:35:03;;;;;;;;;;;16.30;53.40;;;;;;5093783;28;19982;-67
2023/12/31 13:37:29;;;;;;;;;;;16.20;53.50;;;;;;5094961;28;20431;-67
2023/12/31 13:39:55;;;;;;;;;;;16.20;53.50;;;;;;5094777;28;20002;-67
2023/12/31 13:42:20;;;;;;;;;;;16.20;53.50;;;;;;5093703;28;20387;-68
2023/12/31 13:44:46;;;;;;;;;;;16.20;53.60;;;;;;5093666;28;19951;-67
2023/12/31 13:47:11;;;;;;;;;;;16.20;53.70;;;;;;5094149;28;20375;-67
2023/12/31 13:49:37;;;;;;;;;;;16.10;53.70;;;;;;5093564;28;19920;-67
2023/12/31 13:52:02;;;;;;;;;;;16.10;53.80;;;;;;5093458;28;19920;-68
2023/12/31 13:54:28;;;;;;;;;;;16.10;53.90;;;;;;5093430;28;19985;-67
2023/12/31 13:56:53;;;;;;;;;;;16.10;53.90;;;;;;5092896;28;19931;-68
2023/12/31 13:59:19;;;;;;;;;;;16.10;54.00;;;;;;5094295;28;19977;-68
2023/12/31 14:01:45;;;;;;;;;;;16.10;54.00;;;;;;5093429;28;19920;-68
2023/12/31 14:04:10;;;;;;;;;;;16.00;54.10;;;;;;5094177;28;20363;-67
2023/12/31 14:06:37;;;;;;;;;;;16.00;54.10;;;;;;5093042;28;20120;-67
2023/12/31 14:09:03;;;;;;;;;;;16.00;54.20;;;;;;5092997;28;19920;-67
2023/12/31 14:11:29;;;;;;;;;;;16.00;54.20;;;;;;5093425;28;19920;-70
2023/12/31 14:13:54;;;;;;;;;;;16.00;54.30;;;;;;5092942;28;20397;-68
2023/12/31 14:16:20;;;;;;;;;;;15.90;54.30;;;;;;5092700;28;20013;-68
2023/12/31 14:18:46;;;;;;;;;;;15.90;54.40;;;;;;5092040;28;20430;-68